Terminal Aerodrome Forecast
Issued by NWS

Home | Current Version | Previous Version | Text Only | Print | Product List | Glossary Off
Versions: 1 2 3 4 5 6 7 8 9 10 11 12 13 14 15 16 17 18 19 20 21

000
FTUS43 KTOP 031100
TAFFOE
TAF
KFOE 031123Z 0312/0412 17010KT P6SM VCSH SCT060 BKN150
     FM031400 19017G24KT P6SM SCT150
     FM040100 18012KT P6SM SCT120
     FM040600 19009KT P6SM VCTS BKN050CB=

USA.gov is the U.S. government's official web portal to all federal, state and local government web resources and services.